Time;durP1;ratioP1;P1;durP2;ratioP2;P2;SDS_P1;SDS_P2;PMS_P1;PMS_P2;Temp;Humidity;BMP_temperature;BMP_pressure;BME280_temperature;BME280_humidity;BME280_pressure;Samples;Min_cycle;Max_cycle;Signal;HPM_P1;HPM_P2
2021/06/23 00:00:29;;;;;;;15.33;13.73;;;19.60;99.90;;;;;;5061343;28;20187;-77
2021/06/23 00:02:56;;;;;;;15.13;13.73;;;19.60;99.90;;;;;;5044772;28;20187;-77
2021/06/23 00:05:24;;;;;;;14.83;13.37;;;19.60;99.90;;;;;;5041895;28;20203;-77
2021/06/23 00:07:51;;;;;;;13.80;12.50;;;19.60;99.90;;;;;;5043432;28;20237;-77
2021/06/23 00:10:19;;;;;;;14.57;13.03;;;19.60;99.90;;;;;;5027907;28;20184;-76
2021/06/23 00:12:50;;;;;;;15.13;13.50;;;19.60;99.90;;;;;;5031341;28;20250;-77
2021/06/23 00:15:18;;;;;;;15.30;12.97;;;19.60;99.90;;;;;;5035057;28;20199;-77
2021/06/23 00:17:48;;;;;;;14.33;13.03;;;19.60;99.90;;;;;;5028652;28;20994;-79
2021/06/23 00:20:15;;;;;;;16.03;13.53;;;19.60;99.90;;;;;;5036360;28;20192;-77
2021/06/23 00:22:42;;;;;;;15.63;12.97;;;19.60;99.90;;;;;;5025382;28;20270;-76
2021/06/23 00:25:09;;;;;;;14.00;12.80;;;19.60;99.90;;;;;;5028167;28;20218;-77
2021/06/23 00:27:36;;;;;;;13.73;12.33;;;19.70;99.90;;;;;;5026759;28;20199;-79
2021/06/23 00:30:04;;;;;;;14.33;13.03;;;19.60;99.90;;;;;;5039060;28;20187;-77
2021/06/23 00:32:35;;;;;;;14.50;13.00;;;19.60;99.90;;;;;;5035870;28;20219;-77
2021/06/23 00:35:04;;;;;;;14.83;13.33;;;19.50;99.90;;;;;;5030000;28;20203;-77
2021/06/23 00:37:30;;;;;;;13.87;12.37;;;19.60;99.90;;;;;;5025293;28;20195;-77
2021/06/23 00:39:56;;;;;;;15.90;12.93;;;19.60;99.90;;;;;;5046549;28;20190;-78
2021/06/23 00:42:23;;;;;;;15.70;12.47;;;19.60;99.90;;;;;;5040526;28;20253;-78
2021/06/23 00:44:49;;;;;;;13.87;12.53;;;19.60;99.90;;;;;;5027879;28;20192;-78
2021/06/23 00:47:18;;;;;;;15.67;13.10;;;19.70;99.90;;;;;;5046106;28;20227;-78
2021/06/23 00:49:45;;;;;;;15.80;13.20;;;19.70;99.90;;;;;;5043448;28;20211;-78
2021/06/23 00:52:14;;;;;;;14.20;12.63;;;19.70;99.90;;;;;;5045096;28;20214;-79
2021/06/23 00:54:50;;;;;;;14.50;12.73;;;19.60;99.90;;;;;;5026603;28;20187;-80
2021/06/23 00:57:18;;;;;;;13.50;12.30;;;19.60;99.90;;;;;;5074386;28;20214;-77
2021/06/23 00:59:51;;;;;;;16.13;12.43;;;19.50;99.90;;;;;;5043921;28;20190;-76
2021/06/23 01:02:19;;;;;;;12.83;11.60;;;19.50;99.90;;;;;;5041492;28;20192;-76
2021/06/23 01:04:51;;;;;;;13.60;12.20;;;19.50;99.90;;;;;;5046120;28;20223;-76
2021/06/23 01:07:19;;;;;;;13.37;12.07;;;19.40;99.90;;;;;;5039650;28;20667;-76
2021/06/23 01:09:46;;;;;;;13.43;12.10;;;19.40;99.90;;;;;;5024867;28;20188;-76
2021/06/23 01:12:28;;;;;;;14.07;12.73;;;19.40;99.90;;;;;;5041897;28;20217;-76
2021/06/23 01:15:00;;;;;;;13.70;12.40;;;19.40;99.90;;;;;;5043656;28;20647;-76
2021/06/23 01:17:29;;;;;;;14.20;12.80;;;19.40;99.90;;;;;;5057062;28;20696;-77
2021/06/23 01:20:10;;;;;;;13.23;11.93;;;19.40;99.90;;;;;;5043551;28;20628;-77
2021/06/23 01:22:43;;;;;;;14.57;12.67;;;19.40;99.90;;;;;;5040558;28;20262;-77
2021/06/23 01:25:15;;;;;;;14.47;13.00;;;19.40;99.90;;;;;;5041280;28;20223;-77
2021/06/23 01:27:44;;;;;;;14.20;12.87;;;19.40;99.90;;;;;;5042411;28;20191;-77
2021/06/23 01:30:15;;;;;;;15.07;13.27;;;19.40;99.90;;;;;;5026710;28;20201;-77
2021/06/23 01:32:42;;;;;;;15.03;12.37;;;19.40;99.90;;;;;;5021901;28;20222;-77
2021/06/23 01:35:09;;;;;;;14.07;12.87;;;19.40;99.90;;;;;;5046329;28;20183;-76
2021/06/23 01:37:35;;;;;;;15.10;13.50;;;19.40;99.90;;;;;;5026031;28;20180;-76
2021/06/23 01:40:03;;;;;;;15.27;13.33;;;19.40;99.90;;;;;;5059192;28;20184;-76
2021/06/23 01:42:29;;;;;;;15.00;12.77;;;19.40;99.90;;;;;;5023150;28;20254;-76
2021/06/23 01:45:00;;;;;;;14.60;13.10;;;19.50;99.90;;;;;;5040853;28;20565;-76
2021/06/23 01:47:27;;;;;;;14.80;13.20;;;19.40;99.90;;;;;;5045125;28;20183;-77
2021/06/23 01:49:54;;;;;;;17.43;12.77;;;19.40;99.90;;;;;;5061182;28;20195;-77
2021/06/23 01:52:20;;;;;;;15.23;12.90;;;19.40;99.90;;;;;;5024262;28;20315;-75
2021/06/23 01:54:47;;;;;;;14.30;12.87;;;19.40;99.90;;;;;;5040840;28;20206;-76
2021/06/23 01:57:14;;;;;;;13.57;12.33;;;19.40;99.90;;;;;;5026336;28;20649;-76
2021/06/23 01:59:42;;;;;;;14.03;12.73;;;19.40;99.90;;;;;;5043804;28;20274;-76
2021/06/23 02:02:28;;;;;;;14.13;12.77;;;19.40;99.90;;;;;;5046775;28;20188;-76
2021/06/23 02:05:17;;;;;;;14.17;12.87;;;19.30;99.90;;;;;;5046439;28;20211;-76
2021/06/23 02:08:36;;;;;;;14.03;12.60;;;19.30;99.90;;;;;;5031420;28;20190;-76
2021/06/23 02:11:34;;;;;;;14.13;12.33;;;19.40;99.90;;;;;;5048257;28;20190;-76
2021/06/23 02:14:07;;;;;;;14.27;12.87;;;19.30;99.90;;;;;;5061552;28;20192;-76
2021/06/23 02:16:37;;;;;;;13.13;11.80;;;19.30;99.90;;;;;;5046967;28;20191;-76
2021/06/23 02:19:06;;;;;;;14.13;12.10;;;19.30;99.90;;;;;;5028955;28;20243;-77
2021/06/23 02:21:38;;;;;;;13.83;12.60;;;19.30;99.90;;;;;;5029585;28;20195;-76
2021/06/23 02:24:09;;;;;;;14.40;13.00;;;19.30;99.90;;;;;;5043872;28;20196;-77
2021/06/23 02:26:36;;;;;;;13.90;12.50;;;19.30;99.90;;;;;;5043345;28;20192;-77
2021/06/23 02:29:06;;;;;;;13.30;12.10;;;19.30;99.90;;;;;;5048337;28;20230;-77
2021/06/23 02:31:38;;;;;;;12.97;11.10;;;19.30;99.90;;;;;;5028793;28;20762;-77
2021/06/23 02:34:12;;;;;;;13.40;12.00;;;19.20;99.90;;;;;;5045539;28;20580;-77
2021/06/23 02:36:38;;;;;;;12.47;11.17;;;19.20;99.90;;;;;;5044891;28;20191;-76
2021/06/23 02:39:07;;;;;;;13.03;11.07;;;19.20;99.90;;;;;;5044186;28;20183;-77
2021/06/23 02:41:34;;;;;;;12.13;11.00;;;19.20;99.90;;;;;;5027466;28;21918;-77
2021/06/23 02:44:03;;;;;;;12.77;10.93;;;19.20;99.90;;;;;;5030607;28;20188;-77
2021/06/23 02:46:30;;;;;;;12.13;10.80;;;19.30;99.90;;;;;;5061223;28;20192;-77
2021/06/23 02:48:58;;;;;;;12.10;10.30;;;19.30;99.90;;;;;;5038749;28;20198;-76
2021/06/23 02:51:26;;;;;;;11.10;9.90;;;19.30;99.90;;;;;;5045719;28;20613;-77
2021/06/23 02:53:57;;;;;;;11.67;10.43;;;19.30;99.90;;;;;;5026707;28;20258;-77
2021/06/23 02:56:24;;;;;;;12.17;10.20;;;19.30;99.90;;;;;;5046258;28;20192;-78
2021/06/23 02:58:51;;;;;;;11.30;10.30;;;19.30;99.90;;;;;;5027252;28;20211;-78
2021/06/23 03:01:18;;;;;;;11.20;10.10;;;19.30;99.90;;;;;;5025833;28;20227;-76
2021/06/23 03:03:45;;;;;;;12.77;10.63;;;19.30;99.90;;;;;;5043832;28;20225;-75
2021/06/23 03:06:12;;;;;;;11.07;10.07;;;19.40;99.90;;;;;;5044732;28;20198;-76
2021/06/23 03:08:39;;;;;;;11.63;10.53;;;19.30;99.90;;;;;;5043863;28;20561;-75
2021/06/23 03:11:07;;;;;;;11.90;10.07;;;19.30;99.90;;;;;;5028633;28;20196;-76
2021/06/23 03:13:34;;;;;;;13.87;10.57;;;19.30;99.90;;;;;;5044552;28;20310;-75
2021/06/23 03:16:01;;;;;;;10.93;9.80;;;19.20;99.90;;;;;;5031879;28;20793;-76
2021/06/23 03:18:29;;;;;;;11.43;10.33;;;19.20;99.90;;;;;;5034564;28;20202;-76
2021/06/23 03:20:56;;;;;;;10.90;9.27;;;19.30;99.90;;;;;;5045408;28;20961;-75
2021/06/23 03:23:22;;;;;;;9.70;8.70;;;19.20;99.90;;;;;;5041245;28;20231;-75
2021/06/23 03:25:48;;;;;;;9.87;8.87;;;19.30;99.90;;;;;;5044097;28;20238;-75
2021/06/23 03:28:15;;;;;;;8.87;7.97;;;19.30;99.90;;;;;;5029422;28;20191;-76
2021/06/23 03:30:41;;;;;;;9.50;8.50;;;19.20;99.90;;;;;;5043503;28;20643;-77
2021/06/23 03:33:08;;;;;;;9.47;8.57;;;19.20;99.90;;;;;;5029888;28;20254;-77
2021/06/23 03:35:34;;;;;;;9.37;8.43;;;19.20;99.90;;;;;;5027009;28;20179;-77
2021/06/23 03:38:01;;;;;;;9.83;8.93;;;19.20;99.90;;;;;;5045655;28;20779;-77
2021/06/23 03:40:27;;;;;;;9.57;8.60;;;19.30;99.90;;;;;;5045430;28;20188;-77
2021/06/23 03:42:55;;;;;;;9.80;8.90;;;19.30;99.90;;;;;;5046254;28;20199;-78
2021/06/23 03:45:21;;;;;;;10.17;9.17;;;19.30;99.90;;;;;;5029488;28;20219;-77
2021/06/23 03:47:48;;;;;;;12.37;10.17;;;19.40;99.90;;;;;;5060096;28;20210;-79
2021/06/23 03:50:16;;;;;;;11.03;9.90;;;19.40;99.90;;;;;;5026006;28;20194;-79
2021/06/23 03:52:43;;;;;;;10.13;9.23;;;19.40;99.90;;;;;;5042182;28;20207;-79
2021/06/23 03:55:19;;;;;;;20.10;9.73;;;19.40;99.90;;;;;;5052735;28;20188;-79
2021/06/23 03:57:49;;;;;;;11.37;9.70;;;19.40;99.90;;;;;;5046189;28;20186;-79
2021/06/23 04:00:19;;;;;;;10.37;9.07;;;19.40;99.90;;;;;;5055808;28;20200;-78
2021/06/23 04:02:45;;;;;;;11.90;9.93;;;19.40;99.90;;;;;;5043600;28;20194;-78
2021/06/23 04:05:13;;;;;;;12.17;10.13;;;19.50;99.90;;;;;;5046141;28;20215;-78
2021/06/23 04:07:40;;;;;;;10.63;9.10;;;19.50;99.90;;;;;;5041634;28;20202;-78
2021/06/23 04:10:09;;;;;;;15.63;10.27;;;19.50;99.90;;;;;;5046201;28;20185;-78
2021/06/23 04:12:36;;;;;;;10.80;9.80;;;19.60;99.90;;;;;;5042982;28;20564;-78
2021/06/23 04:15:09;;;;;;;10.47;9.47;;;19.70;99.90;;;;;;5027526;28;20242;-79
2021/06/23 04:17:36;;;;;;;12.63;9.73;;;19.70;99.90;;;;;;5044764;28;20191;-79
2021/06/23 04:20:07;;;;;;;11.20;9.80;;;19.80;99.90;;;;;;5027719;28;20180;-78
2021/06/23 04:22:33;;;;;;;14.13;10.37;;;19.80;99.90;;;;;;5044735;28;20191;-79
2021/06/23 04:24:59;;;;;;;11.53;10.27;;;19.90;99.90;;;;;;5044178;28;20199;-79
2021/06/23 04:27:26;;;;;;;10.60;9.70;;;19.90;99.90;;;;;;5041988;28;20767;-79
2021/06/23 04:29:52;;;;;;;12.77;9.57;;;20.00;99.90;;;;;;5059889;28;20202;-79
2021/06/23 04:32:18;;;;;;;11.00;10.00;;;20.00;99.90;;;;;;5026476;28;20227;-78
2021/06/23 04:34:45;;;;;;;13.77;9.93;;;20.00;99.90;;;;;;5044838;28;20653;-79
2021/06/23 04:37:11;;;;;;;11.43;10.30;;;20.10;99.90;;;;;;5044149;28;20202;-79
2021/06/23 04:39:38;;;;;;;11.20;10.20;;;20.10;99.90;;;;;;5041994;28;20188;-78
2021/06/23 04:42:05;;;;;;;11.40;10.17;;;20.10;99.90;;;;;;5042304;28;20318;-78
2021/06/23 04:44:31;;;;;;;11.37;10.27;;;20.20;99.90;;;;;;5046496;28;20195;-77
2021/06/23 04:46:58;;;;;;;10.60;9.57;;;20.20;99.90;;;;;;5042112;28;20199;-78
2021/06/23 04:49:24;;;;;;;10.97;9.87;;;20.20;99.90;;;;;;5041565;28;20221;-78
2021/06/23 04:51:50;;;;;;;10.47;9.37;;;20.30;99.90;;;;;;5057888;28;20199;-79
2021/06/23 04:54:16;;;;;;;10.30;9.30;;;20.40;99.90;;;;;;5044332;28;20203;-78
2021/06/23 04:56:43;;;;;;;12.03;10.17;;;20.40;99.90;;;;;;5042925;28;20184;-79
2021/06/23 04:59:09;;;;;;;10.17;9.23;;;20.50;99.90;;;;;;5034996;28;20195;-79
2021/06/23 05:01:36;;;;;;;10.50;9.50;;;20.50;99.90;;;;;;5055138;28;20180;-78
2021/06/23 05:04:03;;;;;;;11.13;9.07;;;20.50;99.90;;;;;;5043174;28;20569;-78
2021/06/23 05:06:30;;;;;;;11.10;9.33;;;20.50;99.90;;;;;;5045060;28;20187;-78
2021/06/23 05:08:56;;;;;;;10.80;9.70;;;20.60;99.90;;;;;;5025509;28;20250;-77
2021/06/23 05:11:22;;;;;;;11.13;9.80;;;20.60;99.90;;;;;;5044869;28;20210;-78
2021/06/23 05:13:49;;;;;;;11.57;9.67;;;20.70;99.90;;;;;;5045472;28;20309;-77
2021/06/23 05:16:17;;;;;;;11.17;10.00;;;20.70;99.90;;;;;;5060534;28;20233;-77
2021/06/23 05:18:43;;;;;;;12.03;8.93;;;21.00;99.90;;;;;;5042192;28;20191;-77
2021/06/23 05:21:10;;;;;;;9.50;8.60;;;20.90;99.90;;;;;;5024155;28;20575;-77
2021/06/23 05:23:36;;;;;;;10.90;9.63;;;21.00;99.90;;;;;;5042920;28;20246;-77
2021/06/23 05:26:02;;;;;;;12.10;9.50;;;21.10;99.90;;;;;;5044097;28;20203;-77
2021/06/23 05:28:29;;;;;;;10.33;9.23;;;21.30;99.90;;;;;;5025084;28;20193;-76
2021/06/23 05:30:55;;;;;;;11.23;8.83;;;21.20;99.90;;;;;;5046298;28;20269;-74
2021/06/23 05:33:21;;;;;;;12.27;8.80;;;21.20;99.90;;;;;;5041329;28;20899;-76
2021/06/23 05:35:48;;;;;;;11.00;8.03;;;21.20;99.90;;;;;;5045610;28;20287;-76
2021/06/23 05:38:14;;;;;;;13.53;7.50;;;21.30;99.90;;;;;;5029807;28;20905;-75
2021/06/23 05:40:41;;;;;;;8.10;7.20;;;21.50;99.90;;;;;;5035321;28;20202;-75
2021/06/23 05:43:08;;;;;;;10.70;7.10;;;21.50;99.90;;;;;;5029599;28;20219;-75
2021/06/23 05:45:34;;;;;;;9.60;7.17;;;21.50;99.90;;;;;;5028037;28;20249;-75
2021/06/23 05:48:00;;;;;;;7.00;6.30;;;21.70;99.90;;;;;;5030195;28;20302;-76
2021/06/23 05:50:27;;;;;;;6.97;6.13;;;21.90;99.90;;;;;;5046313;28;20195;-77
2021/06/23 05:52:53;;;;;;;6.67;5.97;;;22.00;99.90;;;;;;5045089;28;20211;-76
2021/06/23 05:55:23;;;;;;;6.30;5.70;;;21.90;99.90;;;;;;5062193;28;20193;-76
2021/06/23 05:57:55;;;;;;;6.37;4.47;;;21.90;99.90;;;;;;5050459;28;20304;-77
2021/06/23 06:00:23;;;;;;;5.10;4.60;;;22.10;99.90;;;;;;5026970;28;20193;-76
2021/06/23 06:02:51;;;;;;;7.60;4.70;;;22.30;99.90;;;;;;5019346;28;20281;-76
2021/06/23 06:05:18;;;;;;;5.10;4.60;;;22.40;99.90;;;;;;5062417;28;20261;-76
2021/06/23 06:07:45;;;;;;;6.97;4.60;;;22.40;99.90;;;;;;5027367;28;20298;-77
2021/06/23 06:10:12;;;;;;;6.73;4.60;;;22.60;99.90;;;;;;5009236;28;20661;-76
2021/06/23 06:12:39;;;;;;;6.83;4.07;;;22.40;99.90;;;;;;5043310;28;20211;-76
2021/06/23 06:15:07;;;;;;;7.03;4.47;;;22.80;99.90;;;;;;5062592;28;20794;-77
2021/06/23 06:17:33;;;;;;;6.07;4.30;;;22.90;99.90;;;;;;5061962;28;20196;-77
2021/06/23 06:20:00;;;;;;;4.93;4.37;;;23.00;99.90;;;;;;5047615;28;20266;-77
2021/06/23 06:22:27;;;;;;;5.43;4.70;;;23.10;99.90;;;;;;5044295;28;20699;-78
2021/06/23 06:24:54;;;;;;;4.27;3.83;;;23.10;99.90;;;;;;5061246;28;20210;-77
2021/06/23 06:27:22;;;;;;;5.00;4.45;;;23.30;99.90;;;;;;5058946;28;20286;-75
2021/06/23 06:29:48;;;;;;;4.70;3.93;;;23.30;99.90;;;;;;5046063;28;20238;-77
2021/06/23 06:32:15;;;;;;;5.50;3.70;;;23.30;99.90;;;;;;5032284;28;20219;-76
2021/06/23 06:34:42;;;;;;;4.32;3.92;;;23.40;99.90;;;;;;5029103;28;20179;-75
2021/06/23 06:37:08;;;;;;;6.85;3.75;;;23.30;99.90;;;;;;5035500;28;20189;-76
2021/06/23 06:39:35;;;;;;;3.63;3.33;;;23.50;99.90;;;;;;4988069;28;20643;-77
2021/06/23 06:42:01;;;;;;;4.13;3.33;;;23.70;99.90;;;;;;5036414;28;20282;-77
2021/06/23 06:44:31;;;;;;;5.13;3.37;;;23.80;99.90;;;;;;5031290;28;20205;-76
2021/06/23 06:46:58;;;;;;;3.47;3.10;;;23.80;99.90;;;;;;5054836;28;20226;-76
2021/06/23 06:49:27;;;;;;;6.20;3.87;;;24.00;99.90;;;;;;5006309;28;20298;-76
2021/06/23 06:51:58;;;;;;;5.07;3.92;;;24.00;99.90;;;;;;5040484;28;20280;-76
2021/06/23 06:54:29;;;;;;;4.13;3.40;;;24.00;99.90;;;;;;5023893;28;20211;-76
2021/06/23 06:56:56;;;;;;;5.77;3.60;;;24.00;99.90;;;;;;5043962;28;20219;-75
2021/06/23 06:59:23;;;;;;;4.85;3.35;;;24.00;99.90;;;;;;5045673;28;20281;-77
2021/06/23 07:01:51;;;;;;;4.03;3.05;;;24.10;99.90;;;;;;5025846;28;20264;-76
2021/06/23 07:04:17;;;;;;;3.60;3.30;;;24.20;99.90;;;;;;5019617;28;20270;-77
2021/06/23 07:06:46;;;;;;;3.70;2.78;;;24.20;99.90;;;;;;5020561;28;20196;-77
2021/06/23 07:09:14;;;;;;;3.17;2.70;;;24.30;99.90;;;;;;5009591;28;20208;-78
2021/06/23 07:11:42;;;;;;;3.55;3.25;;;24.50;99.90;;;;;;5025673;28;20199;-75
2021/06/23 07:14:08;;;;;;;5.75;3.70;;;24.60;99.90;;;;;;5041078;28;20622;-76
2021/06/23 07:16:35;;;;;;;5.47;3.05;;;24.50;99.90;;;;;;5022981;28;20214;-77
2021/06/23 07:19:02;;;;;;;5.13;3.65;;;24.60;99.90;;;;;;5035040;28;20307;-78
2021/06/23 07:21:29;;;;;;;5.30;3.30;;;24.70;99.90;;;;;;5041768;28;20222;-76
2021/06/23 07:23:57;;;;;;;4.88;3.72;;;24.80;99.90;;;;;;5052940;28;20217;-76
2021/06/23 07:26:26;;;;;;;4.60;3.72;;;24.90;99.90;;;;;;5035674;28;20211;-77
2021/06/23 07:28:54;;;;;;;5.15;3.40;;;24.80;99.90;;;;;;5041522;28;20199;-78
2021/06/23 07:36:46;;;;;;;3.50;2.85;;;25.10;99.90;;;;;;5026084;28;20217;-78
2021/06/23 07:39:17;;;;;;;4.90;2.75;;;25.00;99.90;;;;;;5035625;28;20213;-76
2021/06/23 07:41:50;;;;;;;4.38;3.08;;;25.10;99.90;;;;;;5038089;28;20215;-77
2021/06/23 07:44:23;;;;;;;3.75;2.63;;;25.10;99.90;;;;;;5014633;28;20231;-77
2021/06/23 07:46:53;;;;;;;2.70;2.50;;;25.30;99.90;;;;;;5026591;28;20227;-77
2021/06/23 07:49:21;;;;;;;4.50;2.40;;;25.20;99.90;;;;;;5048121;28;20258;-77
2021/06/23 07:51:58;;;;;;;2.85;2.40;;;24.90;99.90;;;;;;5016757;28;20206;-78
2021/06/23 07:54:34;;;;;;;3.25;2.08;;;25.10;99.90;;;;;;5021693;28;20997;-78
2021/06/23 08:03:02;;;;;;;3.13;2.60;;;25.60;99.90;;;;;;5050746;28;20191;-77
2021/06/23 08:10:49;;;;;;;4.80;3.47;;;25.80;99.90;;;;;;5056094;28;20215;-76
2021/06/23 08:13:17;;;;;;;7.47;3.38;;;25.90;99.90;;;;;;5056738;28;20223;-78
2021/06/23 08:15:47;;;;;;;5.60;3.33;;;25.90;99.90;;;;;;5042576;28;20265;-77
2021/06/23 08:18:16;;;;;;;6.07;3.75;;;25.90;99.90;;;;;;5052875;28;20192;-76
2021/06/23 08:20:42;;;;;;;4.57;4.07;;;25.90;99.90;;;;;;5025671;28;20187;-75
2021/06/23 08:23:09;;;;;;;5.18;3.90;;;25.90;99.90;;;;;;5040431;28;20194;-78
2021/06/23 08:25:36;;;;;;;4.57;3.95;;;26.00;99.90;;;;;;5023899;28;20179;-78
2021/06/23 08:28:04;;;;;;;5.18;4.03;;;26.00;99.90;;;;;;5053744;28;20187;-78
2021/06/23 08:30:33;;;;;;;5.97;3.78;;;26.10;99.90;;;;;;5043702;28;20187;-78
2021/06/23 08:33:02;;;;;;;4.70;3.78;;;26.20;99.90;;;;;;5040196;28;20261;-78
2021/06/23 08:35:29;;;;;;;6.25;3.67;;;26.10;99.90;;;;;;5016134;28;20188;-78
2021/06/23 08:37:56;;;;;;;4.45;3.80;;;26.20;99.90;;;;;;5033312;28;20218;-77
2021/06/23 08:40:23;;;;;;;3.92;3.53;;;26.10;99.90;;;;;;5032453;28;20192;-78
2021/06/23 08:42:49;;;;;;;6.22;3.80;;;26.10;99.90;;;;;;5055347;28;20192;-78
2021/06/23 08:45:16;;;;;;;5.45;3.60;;;26.10;99.90;;;;;;5039259;28;20195;-78
2021/06/23 08:47:49;;;;;;;6.55;3.90;;;26.10;99.90;;;;;;5045116;28;20174;-76
2021/06/23 08:50:21;;;;;;;6.95;3.60;;;26.30;99.90;;;;;;5042601;28;20289;-77
2021/06/23 08:52:47;;;;;;;6.97;3.53;;;26.50;99.90;;;;;;5038969;28;20218;-78
2021/06/23 08:55:20;;;;;;;4.88;4.10;;;26.40;99.90;;;;;;5043815;28;20600;-78
2021/06/23 08:57:49;;;;;;;4.57;3.58;;;26.60;99.90;;;;;;5043977;28;20279;-78
2021/06/23 09:00:17;;;;;;;6.57;4.30;;;26.60;99.90;;;;;;5044206;28;20179;-78
2021/06/23 09:02:48;;;;;;;7.35;3.88;;;26.50;99.90;;;;;;5007814;28;20277;-79
2021/06/23 09:05:17;;;;;;;8.05;3.67;;;26.70;99.90;;;;;;5044048;28;20306;-78
2021/06/23 09:07:44;;;;;;;6.82;3.78;;;26.50;99.90;;;;;;5029234;28;20919;-79
2021/06/23 09:10:34;;;;;;;9.50;4.25;;;26.70;99.90;;;;;;5037129;28;20198;-78
2021/06/23 09:13:08;;;;;;;5.88;3.97;;;26.80;99.90;;;;;;5035409;28;20212;-78
2021/06/23 09:16:01;;;;;;;8.93;3.50;;;26.70;99.90;;;;;;5023305;28;20214;-79
2021/06/23 09:18:35;;;;;;;5.45;3.63;;;26.80;99.90;;;;;;5020973;28;20180;-78
2021/06/23 09:21:23;;;;;;;5.47;3.92;;;26.70;99.90;;;;;;5022488;28;20179;-79
2021/06/23 09:23:57;;;;;;;5.45;3.90;;;26.80;99.90;;;;;;5022937;28;20611;-79
2021/06/23 09:26:35;;;;;;;8.75;3.63;;;26.80;99.90;;;;;;5023628;28;20202;-78
2021/06/23 09:29:17;;;;;;;6.20;3.75;;;27.00;99.90;;;;;;5035074;28;20194;-79
2021/06/23 09:32:05;;;;;;;5.03;3.55;;;26.90;99.90;;;;;;5022156;28;20219;-79
2021/06/23 09:34:53;;;;;;;5.30;3.60;;;27.10;99.90;;;;;;5025267;28;20179;-79
2021/06/23 09:37:37;;;;;;;5.47;3.92;;;26.90;99.90;;;;;;5036846;28;20636;-78
2021/06/23 09:40:21;;;;;;;4.72;3.78;;;26.90;99.90;;;;;;5041456;28;20194;-78
2021/06/23 09:42:54;;;;;;;4.82;3.65;;;27.00;99.90;;;;;;5024600;28;20190;-79
2021/06/23 09:45:21;;;;;;;7.45;4.10;;;27.10;99.90;;;;;;5045107;28;20184;-78
2021/06/23 09:47:49;;;;;;;4.60;3.53;;;27.20;99.90;;;;;;5041078;28;20999;-76
2021/06/23 09:50:29;;;;;;;10.80;4.22;;;27.30;99.90;;;;;;5040842;28;20183;-79
2021/06/23 09:53:02;;;;;;;6.05;3.95;;;27.30;99.90;;;;;;5024862;28;20685;-79
2021/06/23 09:55:47;;;;;;;6.55;3.83;;;27.30;99.90;;;;;;5025297;28;20652;-79
2021/06/23 09:58:21;;;;;;;6.00;4.10;;;27.40;99.90;;;;;;5035438;28;20187;-78
2021/06/23 10:01:12;;;;;;;4.03;3.63;;;27.20;99.90;;;;;;5033232;28;20279;-77
2021/06/23 10:04:10;;;;;;;4.95;3.80;;;27.20;99.90;;;;;;5039940;28;20199;-80
2021/06/23 10:06:45;;;;;;;4.65;3.90;;;27.40;99.90;;;;;;5051038;28;20198;-80
2021/06/23 10:09:28;;;;;;;8.63;3.55;;;27.40;99.90;;;;;;5054740;28;20191;-80
2021/06/23 10:12:08;;;;;;;5.13;3.33;;;27.50;99.90;;;;;;5036041;28;20198;-79
2021/06/23 10:14:48;;;;;;;5.35;3.38;;;27.70;99.90;;;;;;5041827;28;20180;-80
2021/06/23 10:17:14;;;;;;;5.28;3.22;;;27.70;99.90;;;;;;5021692;28;20194;-77
2021/06/23 10:19:42;;;;;;;3.20;2.90;;;27.70;99.90;;;;;;5025430;28;20226;-77
2021/06/23 10:22:09;;;;;;;5.07;3.47;;;27.90;99.90;;;;;;5045886;28;20188;-80
2021/06/23 10:24:36;;;;;;;5.60;3.75;;;27.90;99.90;;;;;;5039377;28;20183;-77
2021/06/23 10:27:10;;;;;;;4.75;3.10;;;27.70;99.90;;;;;;5044981;28;20203;-79
2021/06/23 10:29:40;;;;;;;5.57;3.00;;;27.90;99.90;;;;;;5038580;28;20294;-78
2021/06/23 10:32:09;;;;;;;3.42;3.10;;;27.70;99.90;;;;;;5038565;28;22188;-77
2021/06/23 10:34:35;;;;;;;6.57;3.53;;;28.10;99.90;;;;;;5024957;28;20195;-80
2021/06/23 10:37:02;;;;;;;8.80;3.60;;;28.20;99.90;;;;;;5043956;28;20180;-82
2021/06/23 10:39:36;;;;;;;4.60;3.28;;;28.20;99.90;;;;;;5034102;28;20897;-80
2021/06/23 10:42:07;;;;;;;3.30;3.00;;;28.20;99.90;;;;;;5063156;28;20187;-80
2021/06/23 10:44:47;;;;;;;4.03;3.15;;;28.10;99.90;;;;;;5049063;28;20202;-79
2021/06/23 10:47:39;;;;;;;3.50;2.78;;;28.00;99.90;;;;;;5064975;28;20190;-79
2021/06/23 10:50:33;;;;;;;6.80;3.05;;;28.40;99.90;;;;;;5031263;28;20218;-79
2021/06/23 10:53:10;;;;;;;4.40;3.05;;;28.30;99.90;;;;;;5037846;28;20318;-79
2021/06/23 10:55:37;;;;;;;4.78;2.85;;;28.60;99.90;;;;;;5042489;28;20178;-79
2021/06/23 10:58:09;;;;;;;3.63;3.15;;;28.50;99.90;;;;;;5045322;28;20194;-79
2021/06/23 11:00:37;;;;;;;4.78;3.10;;;28.30;99.90;;;;;;5040355;28;20263;-79
2021/06/23 11:03:08;;;;;;;4.55;3.00;;;28.30;99.90;;;;;;5029515;28;20191;-78
2021/06/23 11:05:51;;;;;;;4.30;3.20;;;28.30;99.90;;;;;;5023940;28;20212;-79
2021/06/23 11:08:34;;;;;;;7.10;3.42;;;28.30;99.90;;;;;;5042000;28;20200;-79
2021/06/23 11:11:10;;;;;;;3.55;2.70;;;28.40;99.90;;;;;;5007873;28;20557;-79
2021/06/23 11:13:39;;;;;;;4.88;3.15;;;28.20;99.90;;;;;;5029802;28;20252;-78
2021/06/23 11:16:07;;;;;;;4.45;3.50;;;28.20;99.90;;;;;;5045455;28;20207;-79
2021/06/23 11:18:41;;;;;;;3.15;2.80;;;28.00;99.90;;;;;;5029361;28;20202;-79
2021/06/23 11:21:07;;;;;;;4.22;2.70;;;28.20;99.90;;;;;;5049150;28;20979;-78
2021/06/23 11:24:01;;;;;;;4.55;3.10;;;28.40;99.90;;;;;;5041106;28;21194;-78
2021/06/23 11:26:28;;;;;;;5.60;3.00;;;28.50;99.90;;;;;;5060505;28;20199;-78
2021/06/23 11:29:15;;;;;;;3.78;3.00;;;28.40;99.90;;;;;;5041806;28;20588;-78
2021/06/23 11:31:51;;;;;;;6.55;3.00;;;28.20;99.90;;;;;;5027928;28;20215;-79
2021/06/23 11:34:36;;;;;;;4.30;3.03;;;28.40;99.90;;;;;;5065967;28;20194;-78
2021/06/23 11:37:05;;;;;;;3.28;2.65;;;28.30;99.90;;;;;;5040055;28;20548;-78
2021/06/23 11:39:32;;;;;;;7.22;3.20;;;28.20;99.90;;;;;;5027338;28;20399;-78
2021/06/23 11:41:58;;;;;;;7.38;3.15;;;28.10;99.90;;;;;;5041378;28;20207;-78
2021/06/23 11:44:24;;;;;;;5.20;2.70;;;28.10;99.90;;;;;;5024370;28;20271;-78
2021/06/23 11:46:53;;;;;;;4.72;3.20;;;28.10;99.90;;;;;;5042981;28;20234;-78
2021/06/23 11:49:20;;;;;;;4.40;2.80;;;28.30;99.90;;;;;;5044046;28;20226;-79
2021/06/23 11:51:46;;;;;;;5.47;3.15;;;28.30;99.90;;;;;;5040615;28;20234;-78
2021/06/23 11:54:13;;;;;;;6.10;3.08;;;28.20;99.90;;;;;;5033189;28;20537;-76
2021/06/23 11:56:40;;;;;;;5.35;3.20;;;28.10;99.90;;;;;;5025026;28;20270;-78
2021/06/23 11:59:06;;;;;;;4.43;2.85;;;28.20;99.90;;;;;;5043137;28;20242;-78
2021/06/23 12:01:32;;;;;;;3.45;2.78;;;28.30;99.90;;;;;;5024090;28;20221;-78
2021/06/23 12:04:01;;;;;;;3.08;2.80;;;28.40;99.90;;;;;;5042458;28;20221;-78
2021/06/23 12:06:28;;;;;;;7.05;3.00;;;28.60;99.90;;;;;;5053012;28;20274;-78
2021/06/23 12:08:55;;;;;;;3.60;3.10;;;28.30;99.90;;;;;;5041759;28;20204;-78
2021/06/23 12:11:21;;;;;;;5.63;3.17;;;28.30;99.90;;;;;;5058830;28;21019;-78
2021/06/23 12:13:48;;;;;;;7.55;3.15;;;28.10;99.90;;;;;;5058438;28;20750;-79
2021/06/23 12:16:14;;;;;;;3.92;3.03;;;28.00;99.90;;;;;;5042705;28;20194;-78
2021/06/23 12:18:40;;;;;;;3.35;2.90;;;28.20;99.90;;;;;;5039615;28;20286;-78
2021/06/23 12:21:08;;;;;;;5.32;3.10;;;28.40;99.90;;;;;;5033799;28;20206;-78
2021/06/23 12:23:37;;;;;;;6.40;3.03;;;28.40;99.90;;;;;;5023748;28;20199;-78
2021/06/23 12:26:03;;;;;;;6.40;3.55;;;28.40;99.90;;;;;;5045442;28;20209;-78
2021/06/23 12:28:29;;;;;;;4.47;3.15;;;28.20;99.90;;;;;;5025161;28;20253;-78
2021/06/23 12:30:56;;;;;;;3.30;3.00;;;28.30;99.90;;;;;;5018696;28;20191;-76
2021/06/23 12:33:24;;;;;;;5.28;3.20;;;28.20;99.90;;;;;;5038571;28;20232;-78
2021/06/23 12:35:52;;;;;;;18.25;3.88;;;28.40;99.90;;;;;;5058477;28;20183;-78
2021/06/23 12:38:19;;;;;;;3.17;2.88;;;28.30;99.90;;;;;;5045934;28;20731;-78
2021/06/23 12:40:47;;;;;;;7.28;3.30;;;28.20;99.90;;;;;;5025901;28;20180;-78
2021/06/23 12:43:14;;;;;;;4.03;3.50;;;28.40;99.90;;;;;;5039433;28;20222;-79
2021/06/23 12:45:48;;;;;;;3.70;3.40;;;28.10;99.90;;;;;;5069437;28;20235;-78
2021/06/23 12:48:15;;;;;;;3.95;3.25;;;28.10;99.90;;;;;;5043589;28;20198;-78
2021/06/23 12:50:42;;;;;;;4.28;3.25;;;27.70;99.90;;;;;;5041561;28;20623;-78
2021/06/23 12:53:08;;;;;;;5.18;3.38;;;28.20;99.90;;;;;;5023792;28;20231;-77
2021/06/23 12:55:36;;;;;;;4.68;3.30;;;28.10;99.90;;;;;;5040635;28;20179;-79
2021/06/23 12:58:03;;;;;;;4.97;2.97;;;27.90;99.90;;;;;;5058453;28;20191;-78
2021/06/23 13:00:29;;;;;;;3.33;2.70;;;28.30;99.90;;;;;;5028897;28;20202;-78
2021/06/23 13:02:56;;;;;;;7.22;3.50;;;28.30;99.90;;;;;;5036388;28;20187;-78
2021/06/23 13:05:22;;;;;;;3.88;2.75;;;27.80;99.90;;;;;;5032393;28;20203;-76
2021/06/23 13:07:50;;;;;;;5.97;3.55;;;27.90;99.90;;;;;;5043682;28;20723;-76
2021/06/23 13:10:18;;;;;;;3.65;2.95;;;27.80;99.90;;;;;;5026024;28;20195;-78